sensor_id;sensor_type;location;lat;lon;timestamp;pressure;altitude;pressure_sealevel;temperature;humidity
70304;BME280;57712;48.752;11.348;2024-01-30T00:00:02;98981.28;;;-0.50;100.00
70304;BME280;57712;48.752;11.348;2024-01-30T00:02:29;98980.47;;;-0.60;100.00
70304;BME280;57712;48.752;11.348;2024-01-30T00:04:56;98991.53;;;-0.61;100.00
70304;BME280;57712;48.752;11.348;2024-01-30T00:07:23;98983.16;;;-0.60;100.00
70304;BME280;57712;48.752;11.348;2024-01-30T00:09:50;98982.41;;;-0.51;100.00
70304;BME280;57712;48.752;11.348;2024-01-30T00:12:17;98977.63;;;-0.54;100.00
70304;BME280;57712;48.752;11.348;2024-01-30T00:14:44;98987.78;;;-0.51;100.00
70304;BME280;57712;48.752;11.348;2024-01-30T00:17:11;98984.09;;;-0.55;100.00
70304;BME280;57712;48.752;11.348;2024-01-30T00:19:37;98987.91;;;-0.56;100.00
70304;BME280;57712;48.752;11.348;2024-01-30T00:22:04;98985.34;;;-0.62;100.00
70304;BME280;57712;48.752;11.348;2024-01-30T00:24:31;98990.91;;;-0.58;100.00
70304;BME280;57712;48.752;11.348;2024-01-30T00:26:57;98997.72;;;-0.61;100.00
70304;BME280;57712;48.752;11.348;2024-01-30T00:29:24;98992.31;;;-0.61;100.00
70304;BME280;57712;48.752;11.348;2024-01-30T00:31:52;98996.59;;;-0.60;100.00
70304;BME280;57712;48.752;11.348;2024-01-30T00:34:19;98996.13;;;-0.62;100.00
70304;BME280;57712;48.752;11.348;2024-01-30T00:36:46;98994.50;;;-0.63;100.00
70304;BME280;57712;48.752;11.348;2024-01-30T00:39:13;99006.69;;;-0.65;100.00
70304;BME280;57712;48.752;11.348;2024-01-30T00:41:41;99009.69;;;-0.67;100.00
70304;BME280;57712;48.752;11.348;2024-01-30T00:44:08;99007.31;;;-0.68;100.00
70304;BME280;57712;48.752;11.348;2024-01-30T00:46:35;99005.41;;;-0.68;100.00
70304;BME280;57712;48.752;11.348;2024-01-30T00:49:02;99002.25;;;-0.70;100.00
70304;BME280;57712;48.752;11.348;2024-01-30T00:51:29;99005.56;;;-0.73;100.00
70304;BME280;57712;48.752;11.348;2024-01-30T00:53:56;99003.75;;;-0.77;100.00
70304;BME280;57712;48.752;11.348;2024-01-30T00:56:23;99008.53;;;-0.74;100.00
70304;BME280;57712;48.752;11.348;2024-01-30T00:58:50;99000.28;;;-0.78;100.00
70304;BME280;57712;48.752;11.348;2024-01-30T01:01:17;99003.59;;;-0.81;100.00
70304;BME280;57712;48.752;11.348;2024-01-30T01:03:44;98999.91;;;-0.85;100.00
70304;BME280;57712;48.752;11.348;2024-01-30T01:06:11;99003.22;;;-0.88;100.00
70304;BME280;57712;48.752;11.348;2024-01-30T01:08:37;99010.66;;;-0.85;100.00
70304;BME280;57712;48.752;11.348;2024-01-30T01:11:05;99010.19;;;-0.87;100.00
70304;BME280;57712;48.752;11.348;2024-01-30T01:13:31;99005.91;;;-0.88;100.00
70304;BME280;57712;48.752;11.348;2024-01-30T01:15:58;99011.59;;;-0.90;100.00
70304;BME280;57712;48.752;11.348;2024-01-30T01:18:25;99010.00;;;-0.91;100.00
70304;BME280;57712;48.752;11.348;2024-01-30T01:20:52;99007.09;;;-1.03;100.00
70304;BME280;57712;48.752;11.348;2024-01-30T01:23:18;99007.88;;;-1.02;100.00
70304;BME280;57712;48.752;11.348;2024-01-30T01:25:45;99015.00;;;-0.98;100.00
70304;BME280;57712;48.752;11.348;2024-01-30T01:28:12;99016.25;;;-1.04;100.00
70304;BME280;57712;48.752;11.348;2024-01-30T01:30:39;99001.09;;;-1.00;100.00
70304;BME280;57712;48.752;11.348;2024-01-30T01:33:06;99009.31;;;-0.96;100.00
70304;BME280;57712;48.752;11.348;2024-01-30T01:35:33;99009.47;;;-1.01;100.00
70304;BME280;57712;48.752;11.348;2024-01-30T01:38:00;99004.25;;;-0.98;100.00
70304;BME280;57712;48.752;11.348;2024-01-30T01:40:27;99002.91;;;-1.09;100.00
70304;BME280;57712;48.752;11.348;2024-01-30T01:42:55;99004.66;;;-1.04;100.00
70304;BME280;57712;48.752;11.348;2024-01-30T01:45:22;99010.66;;;-1.07;100.00
70304;BME280;57712;48.752;11.348;2024-01-30T01:47:52;98997.03;;;-1.11;100.00
70304;BME280;57712;48.752;11.348;2024-01-30T01:50:20;98990.50;;;-1.19;100.00
70304;BME280;57712;48.752;11.348;2024-01-30T01:52:49;98988.81;;;-1.14;100.00
70304;BME280;57712;48.752;11.348;2024-01-30T01:55:19;98993.91;;;-1.27;100.00
70304;BME280;57712;48.752;11.348;2024-01-30T01:57:53;98998.19;;;-1.26;100.00
70304;BME280;57712;48.752;11.348;2024-01-30T02:00:20;98994.47;;;-1.16;100.00
70304;BME280;57712;48.752;11.348;2024-01-30T02:02:47;98996.19;;;-1.20;100.00
70304;BME280;57712;48.752;11.348;2024-01-30T02:05:15;98993.19;;;-1.19;100.00
70304;BME280;57712;48.752;11.348;2024-01-30T02:07:42;98983.53;;;-1.20;100.00
70304;BME280;57712;48.752;11.348;2024-01-30T02:10:10;98991.13;;;-1.22;100.00
70304;BME280;57712;48.752;11.348;2024-01-30T02:12:36;98979.88;;;-1.24;100.00
70304;BME280;57712;48.752;11.348;2024-01-30T02:15:04;98984.25;;;-1.28;100.00
70304;BME280;57712;48.752;11.348;2024-01-30T02:17:31;98983.06;;;-1.22;100.00
70304;BME280;57712;48.752;11.348;2024-01-30T02:19:59;98978.38;;;-1.30;100.00
70304;BME280;57712;48.752;11.348;2024-01-30T02:22:26;98982.97;;;-1.30;100.00
70304;BME280;57712;48.752;11.348;2024-01-30T02:24:52;98983.09;;;-1.35;100.00
70304;BME280;57712;48.752;11.348;2024-01-30T02:27:19;98976.81;;;-1.31;100.00
70304;BME280;57712;48.752;11.348;2024-01-30T02:29:46;98975.16;;;-1.40;100.00
70304;BME280;57712;48.752;11.348;2024-01-30T02:32:13;98974.34;;;-1.41;100.00
70304;BME280;57712;48.752;11.348;2024-01-30T02:34:39;98971.59;;;-1.50;100.00
70304;BME280;57712;48.752;11.348;2024-01-30T02:37:06;98965.00;;;-1.43;100.00
70304;BME280;57712;48.752;11.348;2024-01-30T02:39:33;98969.69;;;-1.49;100.00
70304;BME280;57712;48.752;11.348;2024-01-30T02:42:00;98976.84;;;-1.44;100.00
70304;BME280;57712;48.752;11.348;2024-01-30T02:44:27;98975.44;;;-1.42;100.00
70304;BME280;57712;48.752;11.348;2024-01-30T02:46:54;98973.97;;;-1.48;100.00
70304;BME280;57712;48.752;11.348;2024-01-30T02:49:21;98981.94;;;-1.43;100.00
70304;BME280;57712;48.752;11.348;2024-01-30T02:51:48;98978.47;;;-1.57;100.00
70304;BME280;57712;48.752;11.348;2024-01-30T02:54:15;98973.88;;;-1.43;100.00
70304;BME280;57712;48.752;11.348;2024-01-30T02:56:42;98965.41;;;-1.50;100.00
70304;BME280;57712;48.752;11.348;2024-01-30T02:59:09;98969.81;;;-1.54;100.00
70304;BME280;57712;48.752;11.348;2024-01-30T03:01:45;98974.75;;;-1.48;100.00
70304;BME280;57712;48.752;11.348;2024-01-30T03:04:13;98966.03;;;-1.53;100.00
70304;BME280;57712;48.752;11.348;2024-01-30T03:06:45;98970.41;;;-1.57;100.00
70304;BME280;57712;48.752;11.348;2024-01-30T03:09:12;98966.03;;;-1.53;100.00
70304;BME280;57712;48.752;11.348;2024-01-30T03:11:40;98963.56;;;-1.63;100.00
70304;BME280;57712;48.752;11.348;2024-01-30T03:14:06;98956.72;;;-1.69;100.00
70304;BME280;57712;48.752;11.348;2024-01-30T03:16:34;98951.81;;;-1.67;100.00
70304;BME280;57712;48.752;11.348;2024-01-30T03:19:01;98958.19;;;-1.63;100.00
70304;BME280;57712;48.752;11.348;2024-01-30T03:21:29;98957.09;;;-1.62;100.00
70304;BME280;57712;48.752;11.348;2024-01-30T03:23:56;98960.00;;;-1.72;100.00
70304;BME280;57712;48.752;11.348;2024-01-30T03:26:23;98958.91;;;-1.71;100.00
70304;BME280;57712;48.752;11.348;2024-01-30T03:28:50;98962.06;;;-1.69;100.00
70304;BME280;57712;48.752;11.348;2024-01-30T03:31:18;98976.59;;;-1.70;100.00
70304;BME280;57712;48.752;11.348;2024-01-30T03:33:45;98971.06;;;-1.74;100.00
70304;BME280;57712;48.752;11.348;2024-01-30T03:36:12;98967.09;;;-1.77;100.00
70304;BME280;57712;48.752;11.348;2024-01-30T03:38:39;98974.53;;;-1.73;100.00
70304;BME280;57712;48.752;11.348;2024-01-30T03:41:08;98965.47;;;-1.78;100.00
70304;BME280;57712;48.752;11.348;2024-01-30T03:43:36;98965.09;;;-1.85;100.00
70304;BME280;57712;48.752;11.348;2024-01-30T03:46:03;98961.72;;;-1.90;100.00
70304;BME280;57712;48.752;11.348;2024-01-30T03:48:30;98956.56;;;-1.87;100.00
70304;BME280;57712;48.752;11.348;2024-01-30T03:50:57;98968.47;;;-1.79;100.00
70304;BME280;57712;48.752;11.348;2024-01-30T03:53:23;98966.69;;;-1.84;100.00
70304;BME280;57712;48.752;11.348;2024-01-30T03:55:50;98961.94;;;-1.87;100.00
70304;BME280;57712;48.752;11.348;2024-01-30T03:58:17;98966.69;;;-1.84;100.00
70304;BME280;57712;48.752;11.348;2024-01-30T04:00:43;98959.53;;;-1.88;100.00
70304;BME280;57712;48.752;11.348;2024-01-30T04:03:11;98959.25;;;-1.87;100.00
70304;BME280;57712;48.752;11.348;2024-01-30T04:05:38;98959.53;;;-1.88;100.00
70304;BME280;57712;48.752;11.348;2024-01-30T04:08:04;98963.59;;;-1.91;100.00
70304;BME280;57712;48.752;11.348;2024-01-30T04:10:31;98956.47;;;-1.95;100.00
70304;BME280;57712;48.752;11.348;2024-01-30T04:12:58;98963.91;;;-1.92;100.00
70304;BME280;57712;48.752;11.348;2024-01-30T04:15:25;98964.31;;;-1.85;100.00
70304;BME280;57712;48.752;11.348;2024-01-30T04:17:52;98956.16;;;-1.94;100.00
70304;BME280;57712;48.752;11.348;2024-01-30T04:20:18;98962.50;;;-1.90;100.00
70304;BME280;57712;48.752;11.348;2024-01-30T04:22:46;98953.00;;;-1.96;100.00
70304;BME280;57712;48.752;11.348;2024-01-30T04:25:13;98953.56;;;-1.99;100.00
70304;BME280;57712;48.752;11.348;2024-01-30T04:27:40;98958.84;;;-1.94;100.00
70304;BME280;57712;48.752;11.348;2024-01-30T04:30:07;98954.88;;;-1.96;100.00
70304;BME280;57712;48.752;11.348;2024-01-30T04:32:34;98958.84;;;-1.94;100.00
70304;BME280;57712;48.752;11.348;2024-01-30T04:35:01;98961.03;;;-1.96;100.00
70304;BME280;57712;48.752;11.348;2024-01-30T04:37:31;98963.31;;;-2.03;100.00
70304;BME280;57712;48.752;11.348;2024-01-30T04:39:57;98968.22;;;-2.05;100.00
70304;BME280;57712;48.752;11.348;2024-01-30T04:42:24;98965.53;;;-2.05;100.00
70304;BME280;57712;48.752;11.348;2024-01-30T04:44:51;98959.16;;;-2.09;100.00
70304;BME280;57712;48.752;11.348;2024-01-30T04:47:17;98964.03;;;-2.11;100.00
70304;BME280;57712;48.752;11.348;2024-01-30T04:49:44;98963.72;;;-2.10;100.00
70304;BME280;57712;48.752;11.348;2024-01-30T04:52:11;98956.19;;;-2.08;100.00
70304;BME280;57712;48.752;11.348;2024-01-30T04:54:38;98965.59;;;-2.10;100.00
70304;BME280;57712;48.752;11.348;2024-01-30T04:57:05;98976.88;;;-2.08;100.00
70304;BME280;57712;48.752;11.348;2024-01-30T04:59:35;98971.50;;;-2.08;100.00
70304;BME280;57712;48.752;11.348;2024-01-30T05:02:03;98966.72;;;-2.11;100.00
70304;BME280;57712;48.752;11.348;2024-01-30T05:04:30;98966.72;;;-2.11;100.00
70304;BME280;57712;48.752;11.348;2024-01-30T05:06:56;98960.53;;;-2.12;100.00
70304;BME280;57712;48.752;11.348;2024-01-30T05:09:23;98965.72;;;-2.15;100.00
70304;BME280;57712;48.752;11.348;2024-01-30T05:11:50;98965.13;;;-2.12;100.00
70304;BME280;57712;48.752;11.348;2024-01-30T05:14:16;98972.69;;;-2.14;100.00
70304;BME280;57712;48.752;11.348;2024-01-30T05:16:44;98969.69;;;-2.13;100.00
70304;BME280;57712;48.752;11.348;2024-01-30T05:19:14;98967.91;;;-2.17;100.00
70304;BME280;57712;48.752;11.348;2024-01-30T05:21:41;98976.88;;;-2.08;100.00
70304;BME280;57712;48.752;11.348;2024-01-30T05:24:08;98968.91;;;-2.13;100.00
70304;BME280;57712;48.752;11.348;2024-01-30T05:26:36;98971.09;;;-2.15;100.00
70304;BME280;57712;48.752;11.348;2024-01-30T05:29:03;98971.28;;;-2.12;100.00
70304;BME280;57712;48.752;11.348;2024-01-30T05:31:30;98969.59;;;-2.21;100.00
70304;BME280;57712;48.752;11.348;2024-01-30T05:33:57;98967.91;;;-2.17;100.00
70304;BME280;57712;48.752;11.348;2024-01-30T05:36:24;98969.69;;;-2.26;100.00
70304;BME280;57712;48.752;11.348;2024-01-30T05:38:50;98966.41;;;-2.23;100.00
70304;BME280;57712;48.752;11.348;2024-01-30T05:41:18;98967.41;;;-2.19;100.00
70304;BME280;57712;48.752;11.348;2024-01-30T05:43:45;98967.31;;;-2.14;100.00
70304;BME280;57712;48.752;11.348;2024-01-30T05:46:11;98969.91;;;-2.23;100.00
70304;BME280;57712;48.752;11.348;2024-01-30T05:48:38;98973.84;;;-2.20;100.00
70304;BME280;57712;48.752;11.348;2024-01-30T05:51:07;98984.59;;;-2.20;100.00
70304;BME280;57712;48.752;11.348;2024-01-30T05:53:34;98977.06;;;-2.18;100.00
70304;BME280;57712;48.752;11.348;2024-01-30T05:56:02;98987.41;;;-2.25;100.00
70304;BME280;57712;48.752;11.348;2024-01-30T05:58:29;98994.84;;;-2.22;100.00
70304;BME280;57712;48.752;11.348;2024-01-30T06:00:55;98997.94;;;-2.15;100.00
70304;BME280;57712;48.752;11.348;2024-01-30T06:03:22;99004.09;;;-2.28;100.00
70304;BME280;57712;48.752;11.348;2024-01-30T06:05:49;98998.22;;;-2.17;100.00
70304;BME280;57712;48.752;11.348;2024-01-30T06:08:15;98996.72;;;-2.23;100.00
70304;BME280;57712;48.752;11.348;2024-01-30T06:10:42;98997.75;;;-2.19;100.00
70304;BME280;57712;48.752;11.348;2024-01-30T06:13:09;98991.16;;;-2.26;100.00
70304;BME280;57712;48.752;11.348;2024-01-30T06:15:36;98993.56;;;-2.25;100.00
70304;BME280;57712;48.752;11.348;2024-01-30T06:18:03;98988.38;;;-2.21;100.00
70304;BME280;57712;48.752;11.348;2024-01-30T06:20:29;98981.22;;;-2.26;100.00
70304;BME280;57712;48.752;11.348;2024-01-30T06:22:56;98986.50;;;-2.21;100.00
70304;BME280;57712;48.752;11.348;2024-01-30T06:25:23;98986.28;;;-2.24;100.00
70304;BME280;57712;48.752;11.348;2024-01-30T06:27:50;98994.53;;;-2.21;100.00
70304;BME280;57712;48.752;11.348;2024-01-30T06:30:17;99005.69;;;-2.27;100.00
70304;BME280;57712;48.752;11.348;2024-01-30T06:32:44;99000.41;;;-2.33;100.00
70304;BME280;57712;48.752;11.348;2024-01-30T06:35:10;98993.75;;;-2.21;100.00
70304;BME280;57712;48.752;11.348;2024-01-30T06:37:37;99007.47;;;-2.23;100.00
70304;BME280;57712;48.752;11.348;2024-01-30T06:40:04;98999.91;;;-2.21;100.00
70304;BME280;57712;48.752;11.348;2024-01-30T06:42:31;98997.75;;;-2.19;100.00
70304;BME280;57712;48.752;11.348;2024-01-30T06:44:58;98995.94;;;-2.23;100.00
70304;BME280;57712;48.752;11.348;2024-01-30T06:47:25;99007.47;;;-2.23;100.00
70304;BME280;57712;48.752;11.348;2024-01-30T06:49:51;98992.56;;;-2.29;100.00
70304;BME280;57712;48.752;11.348;2024-01-30T06:52:19;99003.50;;;-2.25;100.00
70304;BME280;57712;48.752;11.348;2024-01-30T06:54:46;98998.31;;;-2.36;100.00
70304;BME280;57712;48.752;11.348;2024-01-30T06:57:13;99007.28;;;-2.26;100.00
70304;BME280;57712;48.752;11.348;2024-01-30T06:59:40;98998.13;;;-2.25;100.00
70304;BME280;57712;48.752;11.348;2024-01-30T07:02:10;98998.91;;;-2.25;100.00
70304;BME280;57712;48.752;11.348;2024-01-30T07:04:37;99004.09;;;-2.28;100.00
70304;BME280;57712;48.752;11.348;2024-01-30T07:07:06;99009.84;;;-2.21;100.00
70304;BME280;57712;48.752;11.348;2024-01-30T07:09:39;99006.06;;;-2.20;100.00
70304;BME280;57712;48.752;11.348;2024-01-30T07:12:06;99011.25;;;-2.24;100.00
70304;BME280;57712;48.752;11.348;2024-01-30T07:14:33;99007.66;;;-2.19;100.00
70304;BME280;57712;48.752;11.348;2024-01-30T07:17:00;99005.88;;;-2.10;100.00
70304;BME280;57712;48.752;11.348;2024-01-30T07:19:28;99007.19;;;-2.08;100.00
70304;BME280;57712;48.752;11.348;2024-01-30T07:21:55;99006.69;;;-1.96;100.00
70304;BME280;57712;48.752;11.348;2024-01-30T07:24:21;99008.56;;;-1.96;100.00
70304;BME280;57712;48.752;11.348;2024-01-30T07:26:48;99010.84;;;-1.90;100.00
70304;BME280;57712;48.752;11.348;2024-01-30T07:29:15;99016.44;;;-1.86;100.00
70304;BME280;57712;48.752;11.348;2024-01-30T07:31:41;99015.63;;;-1.73;100.00
70304;BME280;57712;48.752;11.348;2024-01-30T07:34:08;99019.19;;;-1.64;100.00
70304;BME280;57712;48.752;11.348;2024-01-30T07:36:38;99025.13;;;-1.53;100.00
70304;BME280;57712;48.752;11.348;2024-01-30T07:39:05;99023.13;;;-1.48;100.00
70304;BME280;57712;48.752;11.348;2024-01-30T07:41:32;99028.72;;;-1.44;100.00
70304;BME280;57712;48.752;11.348;2024-01-30T07:44:00;99023.69;;;-1.37;100.00
70304;BME280;57712;48.752;11.348;2024-01-30T07:46:26;99034.25;;;-1.04;100.00
70304;BME280;57712;48.752;11.348;2024-01-30T07:48:53;99044.78;;;-0.94;100.00
70304;BME280;57712;48.752;11.348;2024-01-30T07:51:21;99043.06;;;-0.90;100.00
70304;BME280;57712;48.752;11.348;2024-01-30T07:53:48;99046.56;;;-0.67;100.00
70304;BME280;57712;48.752;11.348;2024-01-30T07:56:14;99042.16;;;-0.63;100.00
70304;BME280;57712;48.752;11.348;2024-01-30T07:58:42;99041.09;;;-0.53;100.00
70304;BME280;57712;48.752;11.348;2024-01-30T08:01:09;99043.06;;;-0.45;100.00
70304;BME280;57712;48.752;11.348;2024-01-30T08:03:36;99040.59;;;-0.33;100.00
70304;BME280;57712;48.752;11.348;2024-01-30T08:06:03;99043.00;;;-0.23;100.00
70304;BME280;57712;48.752;11.348;2024-01-30T08:08:33;99043.22;;;-0.11;100.00
70304;BME280;57712;48.752;11.348;2024-01-30T08:11:00;99048.22;;;0.05;100.00
70304;BME280;57712;48.752;11.348;2024-01-30T08:13:27;99053.97;;;0.12;100.00
70304;BME280;57712;48.752;11.348;2024-01-30T08:15:54;99054.16;;;0.24;100.00
70304;BME280;57712;48.752;11.348;2024-01-30T08:18:21;99048.16;;;0.36;100.00
70304;BME280;57712;48.752;11.348;2024-01-30T08:20:47;99054.06;;;0.46;100.00
70304;BME280;57712;48.752;11.348;2024-01-30T08:23:15;99050.44;;;0.60;100.00
70304;BME280;57712;48.752;11.348;2024-01-30T08:25:42;99051.88;;;0.66;100.00
70304;BME280;57712;48.752;11.348;2024-01-30T08:28:08;99048.22;;;0.62;100.00
70304;BME280;57712;48.752;11.348;2024-01-30T08:30:35;99055.84;;;0.77;100.00
70304;BME280;57712;48.752;11.348;2024-01-30T08:33:02;99055.72;;;0.99;100.00
70304;BME280;57712;48.752;11.348;2024-01-30T08:35:29;99059.34;;;1.03;100.00
70304;BME280;57712;48.752;11.348;2024-01-30T08:37:58;99055.56;;;1.04;100.00
70304;BME280;57712;48.752;11.348;2024-01-30T08:40:25;99056.19;;;1.19;100.00
70304;BME280;57712;48.752;11.348;2024-01-30T08:42:51;99049.53;;;1.07;100.00
70304;BME280;57712;48.752;11.348;2024-01-30T08:45:18;99057.31;;;1.09;100.00
70304;BME280;57712;48.752;11.348;2024-01-30T08:47:45;99057.28;;;1.43;100.00
70304;BME280;57712;48.752;11.348;2024-01-30T08:50:12;99056.66;;;1.47;100.00
70304;BME280;57712;48.752;11.348;2024-01-30T08:52:39;99057.13;;;1.57;100.00
70304;BME280;57712;48.752;11.348;2024-01-30T08:55:06;99065.69;;;1.59;100.00
70304;BME280;57712;48.752;11.348;2024-01-30T08:57:33;99056.44;;;1.78;100.00
70304;BME280;57712;48.752;11.348;2024-01-30T09:00:00;99056.53;;;1.98;100.00
70304;BME280;57712;48.752;11.348;2024-01-30T09:02:27;99053.31;;;2.05;100.00
70304;BME280;57712;48.752;11.348;2024-01-30T09:04:54;99047.25;;;2.08;100.00
70304;BME280;57712;48.752;11.348;2024-01-30T09:07:21;99049.31;;;2.11;100.00
70304;BME280;57712;48.752;11.348;2024-01-30T09:09:47;99051.91;;;2.28;100.00
70304;BME280;57712;48.752;11.348;2024-01-30T09:12:15;99050.22;;;2.53;100.00
70304;BME280;57712;48.752;11.348;2024-01-30T09:14:42;99043.47;;;2.59;100.00
70304;BME280;57712;48.752;11.348;2024-01-30T09:17:09;99059.50;;;2.94;100.00
70304;BME280;57712;48.752;11.348;2024-01-30T09:19:35;99052.75;;;3.00;100.00
70304;BME280;57712;48.752;11.348;2024-01-30T09:22:02;99061.66;;;2.80;100.00
70304;BME280;57712;48.752;11.348;2024-01-30T09:24:30;99048.28;;;2.83;100.00
70304;BME280;57712;48.752;11.348;2024-01-30T09:26:57;99047.28;;;2.88;100.00
70304;BME280;57712;48.752;11.348;2024-01-30T09:29:23;99056.00;;;2.94;100.00
70304;BME280;57712;48.752;11.348;2024-01-30T09:31:50;99047.00;;;3.02;100.00
70304;BME280;57712;48.752;11.348;2024-01-30T09:34:17;99049.59;;;3.19;100.00
70304;BME280;57712;48.752;11.348;2024-01-30T09:36:44;99050.56;;;3.35;100.00
70304;BME280;57712;48.752;11.348;2024-01-30T09:39:11;99049.63;;;3.31;100.00
70304;BME280;57712;48.752;11.348;2024-01-30T09:41:45;99052.75;;;3.54;100.00
70304;BME280;57712;48.752;11.348;2024-01-30T09:44:13;99050.38;;;3.53;100.00
70304;BME280;57712;48.752;11.348;2024-01-30T09:46:41;99056.88;;;3.72;100.00
70304;BME280;57712;48.752;11.348;2024-01-30T09:49:08;99054.31;;;3.76;100.00
70304;BME280;57712;48.752;11.348;2024-01-30T09:51:36;99063.88;;;3.73;100.00
70304;BME280;57712;48.752;11.348;2024-01-30T09:54:03;99066.97;;;3.51;100.00
70304;BME280;57712;48.752;11.348;2024-01-30T09:56:29;99063.78;;;3.70;100.00
70304;BME280;57712;48.752;11.348;2024-01-30T09:58:56;99064.94;;;3.81;100.00
70304;BME280;57712;48.752;11.348;2024-01-30T10:01:23;99056.91;;;3.85;100.00
70304;BME280;57712;48.752;11.348;2024-01-30T10:03:50;99057.94;;;3.92;100.00
70304;BME280;57712;48.752;11.348;2024-01-30T10:06:19;99061.16;;;4.19;100.00
70304;BME280;57712;48.752;11.348;2024-01-30T10:08:49;99046.69;;;4.15;100.00
70304;BME280;57712;48.752;11.348;2024-01-30T10:11:16;99050.56;;;4.38;100.00
70304;BME280;57712;48.752;11.348;2024-01-30T10:13:42;99054.16;;;4.54;100.00
70304;BME280;57712;48.752;11.348;2024-01-30T10:16:09;99050.97;;;4.77;100.00
70304;BME280;57712;48.752;11.348;2024-01-30T10:18:36;99051.72;;;5.02;100.00
70304;BME280;57712;48.752;11.348;2024-01-30T10:21:03;99047.47;;;5.16;100.00
70304;BME280;57712;48.752;11.348;2024-01-30T10:23:30;99045.84;;;5.28;100.00
70304;BME280;57712;48.752;11.348;2024-01-30T10:26:03;99048.34;;;5.20;100.00
70304;BME280;57712;48.752;11.348;2024-01-30T10:28:30;99039.97;;;5.54;100.00
70304;BME280;57712;48.752;11.348;2024-01-30T10:30:58;99042.53;;;5.62;100.00
70304;BME280;57712;48.752;11.348;2024-01-30T10:33:31;99040.34;;;5.96;100.00
70304;BME280;57712;48.752;11.348;2024-01-30T10:36:04;99036.47;;;6.28;100.00
70304;BME280;57712;48.752;11.348;2024-01-30T10:38:34;99032.81;;;6.56;100.00
70304;BME280;57712;48.752;11.348;2024-01-30T10:41:01;99030.31;;;6.47;100.00
70304;BME280;57712;48.752;11.348;2024-01-30T10:43:31;99028.28;;;6.44;100.00
70304;BME280;57712;48.752;11.348;2024-01-30T10:46:10;99031.13;;;6.32;100.00
70304;BME280;57712;48.752;11.348;2024-01-30T10:48:42;99017.19;;;6.18;100.00
70304;BME280;57712;48.752;11.348;2024-01-30T10:51:11;99025.34;;;6.18;100.00
70304;BME280;57712;48.752;11.348;2024-01-30T10:53:41;99022.66;;;5.90;100.00
70304;BME280;57712;48.752;11.348;2024-01-30T10:56:08;99018.97;;;6.45;100.00
70304;BME280;57712;48.752;11.348;2024-01-30T10:58:35;99018.53;;;6.59;100.00
70304;BME280;57712;48.752;11.348;2024-01-30T11:01:01;99011.50;;;6.58;100.00
70304;BME280;57712;48.752;11.348;2024-01-30T11:03:29;99010.81;;;6.45;100.00
70304;BME280;57712;48.752;11.348;2024-01-30T11:05:59;99012.78;;;6.64;100.00
70304;BME280;57712;48.752;11.348;2024-01-30T11:08:26;99010.16;;;6.68;100.00
70304;BME280;57712;48.752;11.348;2024-01-30T11:10:57;99010.06;;;6.64;100.00
70304;BME280;57712;48.752;11.348;2024-01-30T11:13:29;98996.19;;;6.69;100.00
70304;BME280;57712;48.752;11.348;2024-01-30T11:16:03;99004.63;;;6.99;100.00
70304;BME280;57712;48.752;11.348;2024-01-30T11:18:32;99004.78;;;7.48;100.00
70304;BME280;57712;48.752;11.348;2024-01-30T11:21:00;99000.28;;;8.25;100.00
70304;BME280;57712;48.752;11.348;2024-01-30T11:23:30;98997.94;;;9.06;100.00
70304;BME280;57712;48.752;11.348;2024-01-30T11:25:57;98990.22;;;9.15;100.00
70304;BME280;57712;48.752;11.348;2024-01-30T11:28:24;98988.81;;;10.03;95.06
70304;BME280;57712;48.752;11.348;2024-01-30T11:30:51;98986.41;;;9.57;94.11
70304;BME280;57712;48.752;11.348;2024-01-30T11:33:28;98986.00;;;10.44;87.95
70304;BME280;57712;48.752;11.348;2024-01-30T11:36:01;98979.56;;;11.92;78.29
70304;BME280;57712;48.752;11.348;2024-01-30T11:38:28;98976.78;;;11.81;75.16
70304;BME280;57712;48.752;11.348;2024-01-30T11:40:55;98974.72;;;11.43;80.65
70304;BME280;57712;48.752;11.348;2024-01-30T11:43:23;98982.69;;;12.01;76.01
70304;BME280;57712;48.752;11.348;2024-01-30T11:45:51;98974.31;;;12.94;72.10
70304;BME280;57712;48.752;11.348;2024-01-30T11:48:18;98969.25;;;12.71;70.50
70304;BME280;57712;48.752;11.348;2024-01-30T11:50:45;98970.84;;;11.65;72.57
70304;BME280;57712;48.752;11.348;2024-01-30T11:53:12;98970.13;;;11.90;70.93
70304;BME280;57712;48.752;11.348;2024-01-30T11:55:39;98966.94;;;11.70;73.06
70304;BME280;57712;48.752;11.348;2024-01-30T11:58:06;98962.25;;;11.70;72.36
70304;BME280;57712;48.752;11.348;2024-01-30T12:00:33;98952.50;;;10.72;77.54
70304;BME280;57712;48.752;11.348;2024-01-30T12:03:02;98954.25;;;11.05;78.32
70304;BME280;57712;48.752;11.348;2024-01-30T12:05:30;98952.16;;;10.80;78.10
70304;BME280;57712;48.752;11.348;2024-01-30T12:07:57;98954.13;;;10.83;79.56
70304;BME280;57712;48.752;11.348;2024-01-30T12:10:26;98947.78;;;10.10;80.99
70304;BME280;57712;48.752;11.348;2024-01-30T12:12:54;98950.84;;;10.53;81.83
70304;BME280;57712;48.752;11.348;2024-01-30T12:15:22;98950.81;;;10.46;83.00
70304;BME280;57712;48.752;11.348;2024-01-30T12:17:49;98942.72;;;10.12;84.04
70304;BME280;57712;48.752;11.348;2024-01-30T12:20:19;98936.00;;;10.06;85.36
70304;BME280;57712;48.752;11.348;2024-01-30T12:22:48;98945.09;;;10.21;85.46
70304;BME280;57712;48.752;11.348;2024-01-30T12:25:16;98945.00;;;10.06;86.99
70304;BME280;57712;48.752;11.348;2024-01-30T12:27:45;98940.22;;;9.93;90.74
70304;BME280;57712;48.752;11.348;2024-01-30T12:30:13;98934.09;;;10.10;90.50
70304;BME280;57712;48.752;11.348;2024-01-30T12:32:42;98926.22;;;10.05;92.66
70304;BME280;57712;48.752;11.348;2024-01-30T12:35:14;98942.97;;;9.93;93.60
70304;BME280;57712;48.752;11.348;2024-01-30T12:37:43;98937.59;;;9.59;97.06
70304;BME280;57712;48.752;11.348;2024-01-30T12:40:11;98930.25;;;9.30;98.17
70304;BME280;57712;48.752;11.348;2024-01-30T12:42:45;98928.13;;;9.49;98.56